Dycusburg, Kentucky
Current Conditions -  °F | °C
As of 6:15 PM on Friday 19 Dec 2014 (Local Time) from K5M9 Reporting Station
Clear Clear  
Wind Chill: 27°   Ceiling: Unl
Heat Index: 33°   Visibility: 10mi
Dew Point: 27°   Wind: 6mph
Humidity: 78%   Direction: 50°NE
Pressure: 30.26"   Gusts: NA
Location:  37.16°N, 88.18°W
Report Text: K5M9 200015Z AUTO 05005KT 10SM CLR 00/M03 A3026 RMK AO2 T00041030
Loading
Personal Weather Stations






























Interactive Weather Map New forecast layout! Learn more

10-Day Weather Forecast

Advertisements
Track Severe Weather on mobile